createdAt,value
2023-04-08T00:00:06.450Z,7.49
2023-04-08T00:02:33.164Z,7.44
2023-04-08T00:04:59.929Z,7.42
2023-04-08T00:07:26.580Z,7.36
2023-04-08T00:09:53.248Z,7.32
2023-04-08T00:12:19.795Z,7.26
2023-04-08T00:14:46.301Z,7.20
2023-04-08T00:17:13.009Z,7.13
2023-04-08T00:19:39.727Z,7.09
2023-04-08T00:22:07.048Z,7.04
2023-04-08T00:24:33.656Z,6.98
2023-04-08T00:27:00.912Z,6.94
2023-04-08T00:29:27.415Z,6.88
2023-04-08T00:31:54.294Z,6.85
2023-04-08T00:34:21.111Z,6.81
2023-04-08T00:36:47.722Z,6.75
2023-04-08T00:39:14.925Z,6.73
2023-04-08T00:41:41.517Z,6.67
2023-04-08T00:44:08.182Z,6.63
2023-04-08T00:46:38.492Z,6.61
2023-04-08T00:49:06.051Z,6.59
2023-04-08T00:51:32.772Z,6.54
2023-04-08T00:54:00.792Z,6.48
2023-04-08T00:56:27.358Z,6.43
2023-04-08T00:58:55.282Z,6.40
2023-04-08T01:01:51.659Z,6.31
2023-04-08T01:04:26.228Z,6.29
2023-04-08T01:07:20.370Z,6.28
2023-04-08T01:09:53.017Z,6.19
2023-04-08T01:12:44.276Z,6.20
2023-04-08T01:15:12.620Z,6.15
2023-04-08T01:17:41.809Z,6.10
2023-04-08T01:20:09.978Z,6.08
2023-04-08T01:23:01.334Z,6.03
2023-04-08T01:25:32.574Z,6.04
2023-04-08T01:28:13.231Z,6.07
2023-04-08T01:30:41.450Z,6.05
2023-04-08T01:33:11.555Z,6.05
2023-04-08T01:35:38.423Z,6.05
2023-04-08T01:38:08.328Z,6.03
2023-04-08T01:40:35.779Z,6.03
2023-04-08T01:43:04.090Z,6.02
2023-04-08T01:45:31.249Z,6.01
2023-04-08T01:48:00.294Z,6.01
2023-04-08T01:50:27.830Z,5.98
2023-04-08T01:52:56.029Z,5.97
2023-04-08T01:55:23.452Z,5.91
2023-04-08T01:57:52.718Z,5.88
2023-04-08T02:00:24.036Z,5.83
2023-04-08T02:02:51.519Z,5.80
2023-04-08T02:05:18.545Z,5.79
2023-04-08T02:07:46.828Z,5.72
2023-04-08T02:10:13.466Z,5.71
2023-04-08T02:12:40.056Z,5.64
2023-04-08T02:15:07.107Z,5.60
2023-04-08T02:17:43.749Z,5.55
2023-04-08T02:20:16.773Z,5.52
2023-04-08T02:23:14.883Z,5.45
2023-04-08T02:25:45.421Z,5.41
2023-04-08T02:28:12.612Z,5.39
2023-04-08T02:30:43.276Z,5.34
2023-04-08T02:33:11.430Z,5.33
2023-04-08T02:35:40.443Z,5.25
2023-04-08T02:38:07.254Z,5.22
2023-04-08T02:40:35.508Z,5.18
2023-04-08T02:43:02.156Z,5.17
2023-04-08T02:45:32.119Z,5.12
2023-04-08T02:48:02.362Z,5.06
2023-04-08T02:50:29.224Z,5.03
2023-04-08T02:52:56.045Z,4.98
2023-04-08T02:55:22.586Z,4.98
2023-04-08T02:57:49.348Z,4.95
2023-04-08T03:00:16.576Z,4.92
2023-04-08T03:02:43.214Z,4.90
2023-04-08T03:05:10.434Z,4.82
2023-04-08T03:07:37.008Z,4.81
2023-04-08T03:10:04.257Z,4.76
2023-04-08T03:12:31.553Z,4.72
2023-04-08T03:14:58.103Z,4.66
2023-04-08T03:17:24.745Z,4.63
2023-04-08T03:19:51.316Z,4.58
2023-04-08T03:22:17.994Z,4.53
2023-04-08T03:24:44.538Z,4.53
2023-04-08T03:27:12.621Z,4.49
2023-04-08T03:29:39.156Z,4.48
2023-04-08T03:32:05.946Z,4.41
2023-04-08T03:34:34.565Z,4.39
2023-04-08T03:37:01.163Z,4.37
2023-04-08T03:39:27.719Z,4.35
2023-04-08T03:41:54.231Z,4.29
2023-04-08T03:44:20.827Z,4.26
2023-04-08T03:46:47.356Z,4.22
2023-04-08T03:49:14.168Z,4.18
2023-04-08T03:51:40.831Z,4.17
2023-04-08T03:54:07.911Z,4.13
2023-04-08T03:56:34.525Z,4.08
2023-04-08T03:59:01.216Z,4.11
2023-04-08T04:01:27.832Z,4.09
2023-04-08T04:03:54.440Z,4.05
2023-04-08T04:06:21.176Z,4.05
2023-04-08T04:08:47.989Z,4.01
2023-04-08T04:11:14.721Z,3.95
2023-04-08T04:13:41.261Z,3.90
2023-04-08T04:16:07.889Z,3.91
2023-04-08T04:18:34.490Z,3.90
2023-04-08T04:21:01.056Z,3.83
2023-04-08T04:23:27.642Z,3.79
2023-04-08T04:25:54.144Z,3.75
2023-04-08T04:28:20.678Z,3.74
2023-04-08T04:30:47.196Z,3.70
2023-04-08T04:33:13.669Z,3.65
2023-04-08T04:35:41.054Z,3.63
2023-04-08T04:38:12.312Z,3.62
2023-04-08T04:40:39.597Z,3.61
2023-04-08T04:43:06.217Z,3.60
2023-04-08T04:45:32.827Z,3.58
2023-04-08T04:47:59.310Z,3.57
2023-04-08T04:50:26.212Z,3.55
2023-04-08T04:52:52.731Z,3.51
2023-04-08T04:55:19.322Z,3.50
2023-04-08T04:57:45.877Z,3.47
2023-04-08T05:00:12.703Z,3.43
2023-04-08T05:02:39.432Z,3.43
2023-04-08T05:05:06.785Z,3.45
2023-04-08T05:07:37.090Z,3.42
2023-04-08T05:10:04.617Z,3.37
2023-04-08T05:12:31.490Z,3.32
2023-04-08T05:14:59.678Z,3.29
2023-04-08T05:17:26.592Z,3.27
2023-04-08T05:19:53.692Z,3.25
2023-04-08T05:22:20.256Z,3.22
2023-04-08T05:24:46.722Z,3.19
2023-04-08T05:27:13.227Z,3.16
2023-04-08T05:29:39.786Z,3.12
2023-04-08T05:32:06.259Z,3.11
2023-04-08T05:34:32.873Z,3.07
2023-04-08T05:36:59.631Z,3.07
2023-04-08T05:39:26.419Z,3.06
2023-04-08T05:41:53.020Z,3.05
2023-04-08T05:44:19.512Z,3.05
2023-04-08T05:46:46.225Z,3.01
2023-04-08T05:49:12.817Z,2.99
2023-04-08T05:51:39.914Z,3.02
2023-04-08T05:54:06.781Z,3.04
2023-04-08T05:56:33.436Z,3.06
2023-04-08T05:58:59.902Z,3.11
2023-04-08T06:01:26.633Z,3.15
2023-04-08T06:03:53.973Z,3.19
2023-04-08T06:06:20.546Z,3.25
2023-04-08T06:08:47.228Z,3.35
2023-04-08T06:11:14.295Z,3.37
2023-04-08T06:13:40.876Z,3.46
2023-04-08T06:16:14.790Z,3.54
2023-04-08T06:18:41.592Z,3.58
2023-04-08T06:21:08.188Z,3.63
2023-04-08T06:23:34.699Z,3.69
2023-04-08T06:26:01.224Z,3.74
2023-04-08T06:28:30.961Z,3.80
2023-04-08T06:30:58.205Z,3.86
2023-04-08T06:33:24.748Z,3.90
2023-04-08T06:35:51.792Z,3.94
2023-04-08T06:38:18.383Z,4.00
2023-04-08T06:40:44.872Z,4.01
2023-04-08T06:43:11.343Z,4.06
2023-04-08T06:45:37.906Z,4.11
2023-04-08T06:48:04.706Z,4.16
2023-04-08T06:50:31.544Z,4.21
2023-04-08T06:52:58.107Z,4.25
2023-04-08T06:55:24.567Z,4.29
2023-04-08T06:57:51.400Z,4.36
2023-04-08T07:00:18.178Z,4.42
2023-04-08T07:02:45.060Z,4.50
2023-04-08T07:05:11.951Z,4.58
2023-04-08T07:07:38.570Z,4.65
2023-04-08T07:10:05.746Z,4.73
2023-04-08T07:12:32.234Z,4.79
2023-04-08T07:14:58.799Z,4.86
2023-04-08T07:17:25.447Z,4.93
2023-04-08T07:19:52.006Z,5.01
2023-04-08T07:22:18.576Z,5.08
2023-04-08T07:24:49.662Z,5.15
2023-04-08T07:27:17.303Z,5.21
2023-04-08T07:29:44.038Z,5.27
2023-04-08T07:32:10.552Z,5.32
2023-04-08T07:34:37.416Z,5.38
2023-04-08T07:37:03.941Z,5.44
2023-04-08T07:39:30.615Z,5.50
2023-04-08T07:41:57.335Z,5.56
2023-04-08T07:44:23.854Z,5.63
2023-04-08T07:46:51.810Z,5.68
2023-04-08T07:49:18.482Z,5.77
2023-04-08T07:51:44.989Z,5.84
2023-04-08T07:54:12.614Z,5.91
2023-04-08T07:56:40.440Z,5.98
2023-04-08T07:59:07.349Z,6.06
2023-04-08T08:01:35.023Z,6.15
2023-04-08T08:04:02.112Z,6.22
2023-04-08T08:06:29.328Z,6.29
2023-04-08T08:08:56.064Z,6.37
2023-04-08T08:11:22.705Z,6.44
2023-04-08T08:13:49.484Z,6.51
2023-04-08T08:16:16.266Z,6.58
2023-04-08T08:18:42.822Z,6.65
2023-04-08T08:21:09.707Z,6.71
2023-04-08T08:23:37.497Z,6.78
2023-04-08T08:26:10.193Z,6.85
2023-04-08T08:28:38.315Z,6.91
2023-04-08T08:31:06.175Z,6.95
2023-04-08T08:33:33.296Z,7.01
2023-04-08T08:36:00.246Z,7.06
2023-04-08T08:38:27.528Z,7.14
2023-04-08T08:40:58.534Z,7.21
2023-04-08T08:43:25.773Z,7.27
2023-04-08T08:45:52.589Z,7.33
2023-04-08T08:48:19.432Z,7.41
2023-04-08T08:50:46.625Z,7.48
2023-04-08T08:53:13.305Z,7.53
2023-04-08T08:56:13.089Z,7.61
2023-04-08T08:58:28.162Z,7.68
2023-04-08T09:00:55.111Z,7.74
2023-04-08T09:03:28.892Z,7.83
2023-04-08T09:06:02.050Z,7.92
2023-04-08T09:08:35.993Z,8.03
2023-04-08T09:11:16.015Z,8.16
2023-04-08T09:13:43.772Z,8.29
2023-04-08T09:16:17.918Z,8.41
2023-04-08T09:18:47.121Z,8.55
2023-04-08T09:21:15.098Z,8.67
2023-04-08T09:23:46.782Z,8.83
2023-04-08T09:26:19.513Z,9.05
2023-04-08T09:29:11.036Z,9.28
2023-04-08T09:31:47.253Z,9.50
2023-04-08T09:34:23.442Z,9.74
2023-04-08T09:36:50.888Z,9.97
2023-04-08T09:39:18.379Z,10.20
2023-04-08T09:41:47.999Z,10.45
2023-04-08T09:44:16.792Z,10.67
2023-04-08T09:46:46.639Z,10.93
2023-04-08T09:49:15.653Z,11.14
2023-04-08T09:51:50.471Z,11.33
2023-04-08T09:54:23.176Z,11.54
2023-04-08T09:56:58.511Z,11.77
2023-04-08T09:59:28.105Z,11.99
2023-04-08T10:01:58.884Z,12.23
2023-04-08T10:04:28.424Z,12.45
2023-04-08T10:07:00.807Z,12.70
2023-04-08T10:09:28.104Z,12.93
2023-04-08T10:11:55.392Z,13.15
2023-04-08T10:14:22.239Z,13.34
2023-04-08T10:16:48.877Z,13.54
2023-04-08T10:19:41.199Z,13.77
2023-04-08T10:22:29.845Z,13.98
2023-04-08T10:25:18.338Z,14.21
2023-04-08T10:27:45.650Z,14.41
2023-04-08T10:30:27.246Z,14.59
2023-04-08T10:33:00.057Z,14.72
2023-04-08T10:35:35.241Z,14.86
2023-04-08T10:38:02.336Z,14.96
2023-04-08T10:40:29.433Z,15.09
2023-04-08T10:42:59.247Z,15.23
2023-04-08T10:45:26.161Z,15.33
2023-04-08T10:47:52.659Z,15.45
2023-04-08T10:50:23.609Z,15.57
2023-04-08T10:52:52.145Z,15.69
2023-04-08T10:55:26.197Z,15.81
2023-04-08T10:57:54.007Z,15.91
2023-04-08T11:00:40.579Z,16.06
2023-04-08T11:03:10.080Z,16.18
2023-04-08T11:05:38.184Z,16.31
2023-04-08T11:08:07.939Z,16.48
2023-04-08T11:10:39.037Z,16.54
2023-04-08T11:13:10.018Z,16.62
2023-04-08T11:15:38.622Z,16.70
2023-04-08T11:18:06.174Z,16.75
2023-04-08T11:20:37.174Z,16.82
2023-04-08T11:23:03.775Z,16.85
2023-04-08T11:25:30.661Z,16.89
2023-04-08T11:27:57.512Z,16.95
2023-04-08T11:30:24.449Z,17.00
2023-04-08T11:32:52.328Z,17.11
2023-04-08T11:35:19.206Z,17.19
2023-04-08T11:37:47.776Z,17.32
2023-04-08T11:40:20.721Z,17.42
2023-04-08T11:42:47.797Z,17.55
2023-04-08T11:45:16.486Z,17.68
2023-04-08T11:47:43.572Z,17.79
2023-04-08T11:50:10.570Z,17.94
2023-04-08T11:52:45.884Z,18.07
2023-04-08T11:55:22.073Z,18.21
2023-04-08T11:57:48.606Z,18.40
2023-04-08T12:00:15.294Z,18.60
2023-04-08T12:02:41.908Z,18.77
2023-04-08T12:05:08.822Z,18.99
2023-04-08T12:07:35.519Z,19.18
2023-04-08T12:10:02.014Z,19.34
2023-04-08T12:12:28.598Z,19.54
2023-04-08T12:14:55.068Z,19.71
2023-04-08T12:17:21.799Z,19.88
2023-04-08T12:19:48.320Z,20.09
2023-04-08T12:22:14.967Z,20.25
2023-04-08T12:24:41.445Z,20.42
2023-04-08T12:27:08.206Z,20.59
2023-04-08T12:29:34.938Z,20.76
2023-04-08T12:32:02.603Z,20.94
2023-04-08T12:34:29.305Z,21.13
2023-04-08T12:36:56.054Z,21.26
2023-04-08T12:39:23.089Z,21.41
2023-04-08T12:41:49.581Z,21.54
2023-04-08T12:44:16.571Z,21.70
2023-04-08T12:46:43.240Z,21.87
2023-04-08T12:49:09.892Z,22.05
2023-04-08T12:51:36.611Z,22.21
2023-04-08T12:54:04.030Z,22.32
2023-04-08T12:56:31.978Z,22.35
2023-04-08T12:58:59.526Z,22.35
2023-04-08T13:01:26.177Z,22.32
2023-04-08T13:03:52.982Z,22.38
2023-04-08T13:06:19.623Z,22.50
2023-04-08T13:08:47.359Z,22.64
2023-04-08T13:11:13.905Z,22.83
2023-04-08T13:13:40.361Z,23.02
2023-04-08T13:16:07.206Z,23.21
2023-04-08T13:18:33.728Z,23.33
2023-04-08T13:21:00.400Z,23.37
2023-04-08T13:23:27.598Z,23.30
2023-04-08T13:25:54.156Z,23.13
2023-04-08T13:28:20.732Z,22.99
2023-04-08T13:30:47.293Z,23.01
2023-04-08T13:33:13.999Z,23.13
2023-04-08T13:35:40.567Z,23.34
2023-04-08T13:38:07.217Z,23.52
2023-04-08T13:40:33.690Z,23.65
2023-04-08T13:43:00.383Z,23.83
2023-04-08T13:45:27.079Z,23.96
2023-04-08T13:47:53.617Z,24.04
2023-04-08T13:50:20.474Z,24.16
2023-04-08T13:52:46.996Z,24.30
2023-04-08T13:55:13.520Z,24.41
2023-04-08T13:57:39.997Z,24.58
2023-04-08T14:00:07.814Z,24.69
2023-04-08T14:02:34.379Z,24.74
2023-04-08T14:05:00.921Z,24.74
2023-04-08T14:07:27.387Z,24.64
2023-04-08T14:09:53.872Z,24.43
2023-04-08T14:12:20.347Z,24.28
2023-04-08T14:14:46.840Z,24.20
2023-04-08T14:17:13.407Z,24.08
2023-04-08T14:19:40.007Z,23.95
2023-04-08T14:22:06.934Z,23.83
2023-04-08T14:24:34.427Z,23.70
2023-04-08T14:27:02.123Z,23.55
2023-04-08T14:29:28.621Z,23.28
2023-04-08T14:31:55.130Z,23.13
2023-04-08T14:34:21.587Z,23.11
2023-04-08T14:36:48.664Z,23.11
2023-04-08T14:39:15.205Z,23.14
2023-04-08T14:41:41.847Z,23.18
2023-04-08T14:44:08.363Z,23.23
2023-04-08T14:46:34.936Z,23.27
2023-04-08T14:49:01.726Z,23.34
2023-04-08T14:51:28.434Z,23.35
2023-04-08T14:53:54.978Z,23.40
2023-04-08T14:56:21.676Z,23.40
2023-04-08T14:58:48.244Z,23.35
2023-04-08T15:01:14.880Z,23.24
2023-04-08T15:03:41.444Z,23.07
2023-04-08T15:06:08.112Z,22.90
2023-04-08T15:08:35.133Z,22.70
2023-04-08T15:11:01.696Z,22.47
2023-04-08T15:13:28.202Z,22.27
2023-04-08T15:15:54.792Z,22.16
2023-04-08T15:18:21.272Z,22.09
2023-04-08T15:20:47.770Z,22.08
2023-04-08T15:23:14.325Z,22.11
2023-04-08T15:25:40.856Z,22.12
2023-04-08T15:28:08.015Z,22.13
2023-04-08T15:30:37.614Z,22.19
2023-04-08T15:33:04.951Z,22.26
2023-04-08T15:35:32.948Z,22.34
2023-04-08T15:38:00.662Z,22.42
2023-04-08T15:40:27.455Z,22.52
2023-04-08T15:42:54.028Z,22.56
2023-04-08T15:45:20.678Z,22.57
2023-04-08T15:47:47.243Z,22.57
2023-04-08T15:50:14.973Z,22.60
2023-04-08T15:52:41.908Z,22.61
2023-04-08T15:55:08.620Z,22.60
2023-04-08T15:57:36.589Z,22.55
2023-04-08T16:00:13.903Z,22.52
2023-04-08T16:02:42.366Z,22.47
2023-04-08T16:05:09.330Z,22.43
2023-04-08T16:07:36.205Z,22.38
2023-04-08T16:10:02.721Z,22.29
2023-04-08T16:12:29.263Z,22.23
2023-04-08T16:14:55.895Z,22.15
2023-04-08T16:17:23.218Z,22.11
2023-04-08T16:19:51.559Z,22.05
2023-04-08T16:22:18.235Z,21.96
2023-04-08T16:24:44.770Z,21.87
2023-04-08T16:27:11.422Z,21.82
2023-04-08T16:29:37.962Z,21.77
2023-04-08T16:32:04.750Z,21.67
2023-04-08T16:34:31.272Z,21.54
2023-04-08T16:36:57.769Z,21.45
2023-04-08T16:39:24.341Z,21.31
2023-04-08T16:41:51.436Z,21.12
2023-04-08T16:44:17.940Z,20.95
2023-04-08T16:46:44.426Z,20.79
2023-04-08T16:49:13.151Z,20.63
2023-04-08T16:51:40.648Z,20.53
2023-04-08T16:54:07.252Z,20.41
2023-04-08T16:56:33.783Z,20.29
2023-04-08T16:59:00.285Z,20.21
2023-04-08T17:01:27.187Z,20.13
2023-04-08T17:03:54.159Z,19.99
2023-04-08T17:06:20.927Z,19.90
2023-04-08T17:08:47.535Z,19.76
2023-04-08T17:11:15.549Z,19.67
2023-04-08T17:13:43.914Z,19.55
2023-04-08T17:16:17.518Z,19.46
2023-04-08T17:18:45.236Z,19.34
2023-04-08T17:21:13.939Z,19.22
2023-04-08T17:23:40.947Z,19.13
2023-04-08T17:26:08.545Z,19.01
2023-04-08T17:28:36.134Z,18.87
2023-04-08T17:31:02.904Z,18.76
2023-04-08T17:33:29.564Z,18.62
2023-04-08T17:35:56.067Z,18.50
2023-04-08T17:38:22.711Z,18.38
2023-04-08T17:40:49.300Z,18.24
2023-04-08T17:43:16.162Z,18.12
2023-04-08T17:45:42.802Z,18.02
2023-04-08T17:48:10.068Z,17.90
2023-04-08T17:50:36.769Z,17.75
2023-04-08T17:53:04.141Z,17.67
2023-04-08T17:55:30.851Z,17.52
2023-04-08T17:57:57.407Z,17.40
2023-04-08T18:00:24.159Z,17.25
2023-04-08T18:02:50.704Z,17.14
2023-04-08T18:05:17.312Z,17.02
2023-04-08T18:07:43.816Z,16.87
2023-04-08T18:10:10.418Z,16.74
2023-04-08T18:12:37.019Z,16.65
2023-04-08T18:15:03.670Z,16.51
2023-04-08T18:17:30.303Z,16.39
2023-04-08T18:19:58.445Z,16.28
2023-04-08T18:22:24.964Z,16.16
2023-04-08T18:24:51.410Z,16.06
2023-04-08T18:27:17.908Z,15.91
2023-04-08T18:29:44.615Z,15.83
2023-04-08T18:32:11.205Z,15.73
2023-04-08T18:34:38.934Z,15.58
2023-04-08T18:37:05.718Z,15.49
2023-04-08T18:39:32.257Z,15.37
2023-04-08T18:41:58.785Z,15.27
2023-04-08T18:44:25.424Z,15.19
2023-04-08T18:46:51.918Z,15.04
2023-04-08T18:49:18.385Z,14.99
2023-04-08T18:51:58.960Z,14.86
2023-04-08T18:54:28.867Z,14.77
2023-04-08T18:56:55.410Z,14.68
2023-04-08T18:59:22.133Z,14.60
2023-04-08T19:01:48.845Z,14.51
2023-04-08T19:04:15.753Z,14.39
2023-04-08T19:06:42.639Z,14.38
2023-04-08T19:09:09.186Z,14.26
2023-04-08T19:11:35.800Z,14.18
2023-04-08T19:14:02.377Z,14.12
2023-04-08T19:16:28.842Z,14.00
2023-04-08T19:18:56.151Z,13.94
2023-04-08T19:21:23.334Z,13.92
2023-04-08T19:23:50.077Z,13.77
2023-04-08T19:26:17.376Z,13.71
2023-04-08T19:28:43.974Z,13.71
2023-04-08T19:31:17.519Z,13.64
2023-04-08T19:33:44.703Z,13.55
2023-04-08T19:36:11.739Z,13.54
2023-04-08T19:38:38.806Z,13.48
2023-04-08T19:41:05.424Z,13.42
2023-04-08T19:43:31.961Z,13.34
2023-04-08T19:45:58.701Z,13.28
2023-04-08T19:48:26.101Z,13.22
2023-04-08T19:50:53.611Z,13.18
2023-04-08T19:53:20.427Z,13.05
2023-04-08T19:55:47.086Z,12.99
2023-04-08T19:58:13.603Z,12.89
2023-04-08T20:00:40.192Z,12.83
2023-04-08T20:03:07.986Z,12.75
2023-04-08T20:05:34.758Z,12.66
2023-04-08T20:08:01.283Z,12.64
2023-04-08T20:10:27.829Z,12.53
2023-04-08T20:12:54.636Z,12.52
2023-04-08T20:15:25.216Z,12.50
2023-04-08T20:17:52.954Z,12.41
2023-04-08T20:20:20.353Z,12.36
2023-04-08T20:22:46.965Z,12.27
2023-04-08T20:25:13.666Z,12.21
2023-04-08T20:27:41.244Z,12.16
2023-04-08T20:30:08.411Z,12.17
2023-04-08T20:32:35.015Z,12.05
2023-04-08T20:35:01.666Z,12.02
2023-04-08T20:37:28.813Z,11.96
2023-04-08T20:39:55.385Z,11.91
2023-04-08T20:42:21.905Z,11.87
2023-04-08T20:44:48.473Z,11.82
2023-04-08T20:47:15.602Z,11.77
2023-04-08T20:49:42.803Z,11.71
2023-04-08T20:52:09.436Z,11.65
2023-04-08T20:54:36.186Z,11.63
2023-04-08T20:57:02.740Z,11.52
2023-04-08T20:59:29.253Z,11.51
2023-04-08T21:01:55.823Z,11.51
2023-04-08T21:04:24.422Z,11.42
2023-04-08T21:06:51.354Z,11.35
2023-04-08T21:09:17.943Z,11.30
2023-04-08T21:11:44.506Z,11.31
2023-04-08T21:14:11.099Z,11.24
2023-04-08T21:16:37.819Z,11.24
2023-04-08T21:19:04.578Z,11.18
2023-04-08T21:21:31.698Z,11.10
2023-04-08T21:23:58.507Z,11.09
2023-04-08T21:26:25.924Z,11.05
2023-04-08T21:28:52.608Z,11.02
2023-04-08T21:31:19.444Z,11.00
2023-04-08T21:33:46.175Z,10.97
2023-04-08T21:36:12.778Z,10.87
2023-04-08T21:38:39.504Z,10.88
2023-04-08T21:41:05.979Z,10.82
2023-04-08T21:43:32.615Z,10.83
2023-04-08T21:45:59.182Z,10.71
2023-04-08T21:48:25.755Z,10.67
2023-04-08T21:50:53.157Z,10.62
2023-04-08T21:53:22.068Z,10.56
2023-04-08T21:55:48.685Z,10.53
2023-04-08T21:58:16.596Z,10.51
2023-04-08T22:00:43.091Z,10.44
2023-04-08T22:03:09.778Z,10.41
2023-04-08T22:05:36.886Z,10.32
2023-04-08T22:08:03.531Z,10.27
2023-04-08T22:10:30.062Z,10.24
2023-04-08T22:12:56.610Z,10.26
2023-04-08T22:15:23.376Z,10.18
2023-04-08T22:17:49.956Z,10.13
2023-04-08T22:20:16.505Z,10.09
2023-04-08T22:22:43.040Z,10.07
2023-04-08T22:25:09.866Z,10.01
2023-04-08T22:27:36.411Z,9.98
2023-04-08T22:30:03.042Z,9.98
2023-04-08T22:32:29.573Z,9.94
2023-04-08T22:34:56.427Z,9.93
2023-04-08T22:37:22.931Z,9.89
2023-04-08T22:39:49.394Z,9.87
2023-04-08T22:42:15.939Z,9.81
2023-04-08T22:44:42.506Z,9.77
2023-04-08T22:47:08.968Z,9.71
2023-04-08T22:49:35.616Z,9.64
2023-04-08T22:52:02.165Z,9.58
2023-04-08T22:54:28.662Z,9.58
2023-04-08T22:56:55.813Z,9.54
2023-04-08T22:59:22.298Z,9.49
2023-04-08T23:01:48.835Z,9.40
2023-04-08T23:04:15.448Z,9.37
2023-04-08T23:06:42.050Z,9.41
2023-04-08T23:09:08.520Z,9.36
2023-04-08T23:11:35.032Z,9.34
2023-04-08T23:14:01.696Z,9.31
2023-04-08T23:16:28.455Z,9.24
2023-04-08T23:18:56.284Z,9.22
2023-04-08T23:21:23.465Z,9.20
2023-04-08T23:23:49.992Z,9.12
2023-04-08T23:26:17.743Z,9.11
2023-04-08T23:28:44.442Z,9.09
2023-04-08T23:31:11.379Z,9.12
2023-04-08T23:33:38.104Z,9.06
2023-04-08T23:36:08.822Z,9.04
2023-04-08T23:38:37.030Z,9.01
2023-04-08T23:41:04.576Z,8.96
2023-04-08T23:43:31.111Z,8.95
2023-04-08T23:45:57.619Z,8.95
2023-04-08T23:48:24.218Z,8.86
2023-04-08T23:50:52.048Z,8.88
2023-04-08T23:53:18.892Z,8.85
2023-04-08T23:55:45.520Z,8.83
2023-04-08T23:58:12.040Z,8.82
